METAR Data
IDs: Format: Raw Decoded Include TAF

Data at: 2150 UTC 18 Apr 2021

LIBP 182120Z AUTO 21004KT 8000 -RA OVC062/// 09/08 Q1017